Ibiapina, Brazil
Current Conditions -  °F | °C
As of 1:00 PM on Monday 22 Dec 2014 (Local Time) from SBPB Reporting Station
Clear Clear  
Wind Chill: 93°   Ceiling: Unl
Heat Index: 103°   Visibility: 6mi
Dew Point: 73°   Wind: 24mph
Humidity: 52%   Direction: 90°E
Pressure: 29.83"   Gusts: NA
Location:  3.93°S, 40.89°W
Report Text: SBPB 221600Z 09021KT CAVOK 34/23 Q1010
Loading
Personal Weather Stations






























Interactive Weather Map New forecast layout! Learn more

10-Day Weather Forecast

Advertisements
Track Severe Weather on mobile